Time;durP1;ratioP1;P1;durP2;ratioP2;P2;SDS_P1;SDS_P2;PMS_P1;PMS_P2;Temp;Humidity;BMP_temperature;BMP_pressure;BME280_temperature;BME280_humidity;BME280_pressure;Samples;Min_cycle;Max_cycle;Signal;HPM_P1;HPM_P2
2023/03/08 00:00:46;;;;;;;12.75;6.90;;;21.90;61.30;;;;;;5029525;28;20037;-75
2023/03/08 00:03:14;;;;;;;9.38;5.60;;;22.00;61.10;;;;;;5031065;28;20048;-75
2023/03/08 00:05:40;;;;;;;8.65;5.78;;;21.90;61.40;;;;;;5026930;28;20088;-75
2023/03/08 00:08:06;;;;;;;11.77;6.10;;;21.90;61.20;;;;;;5030740;28;20041;-76
2023/03/08 00:10:33;;;;;;;8.13;5.53;;;21.90;61.30;;;;;;5030524;28;20064;-75
2023/03/08 00:12:59;;;;;;;8.00;4.93;;;21.90;61.20;;;;;;5030902;28;20034;-75
2023/03/08 00:15:25;;;;;;;7.68;5.43;;;22.00;61.20;;;;;;5023340;28;20480;-75
2023/03/08 00:17:51;;;;;;;9.50;5.95;;;21.90;61.10;;;;;;5018599;28;20029;-75
2023/03/08 00:20:17;;;;;;;12.13;5.88;;;22.00;61.50;;;;;;5030681;28;20370;-75
2023/03/08 00:22:43;;;;;;;11.73;6.97;;;22.00;61.00;;;;;;5033885;28;20120;-75
2023/03/08 00:25:09;;;;;;;11.80;6.35;;;22.10;61.00;;;;;;5032882;28;20405;-75
2023/03/08 00:27:36;;;;;;;11.15;7.13;;;21.90;60.90;;;;;;5033019;28;20025;-75
2023/03/08 00:30:06;;;;;;;10.60;6.68;;;22.00;61.10;;;;;;5034110;28;20048;-75
2023/03/08 00:32:32;;;;;;;13.43;7.82;;;22.00;60.80;;;;;;5034000;28;20045;-75
2023/03/08 00:34:58;;;;;;;11.68;7.00;;;22.00;60.80;;;;;;5033842;28;20037;-75
2023/03/08 00:37:24;;;;;;;12.10;7.10;;;22.00;60.90;;;;;;5033117;28;20075;-75
2023/03/08 00:39:51;;;;;;;9.07;6.35;;;21.90;61.00;;;;;;5032747;28;20175;-75
2023/03/08 00:42:21;;;;;;;13.00;7.50;;;21.90;61.20;;;;;;5020182;28;20025;-75
2023/03/08 00:44:47;;;;;;;12.18;7.25;;;21.80;60.70;;;;;;5014053;28;20034;-75
2023/03/08 00:47:13;;;;;;;10.82;6.80;;;21.80;60.80;;;;;;5045861;28;20041;-75
2023/03/08 00:49:42;;;;;;;11.13;7.13;;;21.70;61.10;;;;;;5013876;28;20048;-75
2023/03/08 00:52:09;;;;;;;10.25;6.68;;;21.80;60.70;;;;;;5014010;28;20038;-75
2023/03/08 00:54:36;;;;;;;10.38;6.50;;;21.90;60.40;;;;;;5028801;28;20033;-75
2023/03/08 00:57:02;;;;;;;10.88;7.05;;;21.80;60.30;;;;;;5033433;28;20115;-75
2023/03/08 00:59:28;;;;;;;13.70;7.15;;;21.90;60.50;;;;;;5031537;28;20033;-75
2023/03/08 01:01:55;;;;;;;9.52;6.85;;;22.00;60.60;;;;;;5030551;28;20115;-75
2023/03/08 01:04:23;;;;;;;14.50;7.15;;;21.80;60.50;;;;;;5032101;28;20045;-75
2023/03/08 01:06:50;;;;;;;11.35;6.32;;;21.90;60.70;;;;;;5031908;28;20056;-75
2023/03/08 01:09:16;;;;;;;8.93;6.47;;;22.00;60.80;;;;;;5015255;28;20037;-75
2023/03/08 01:11:43;;;;;;;10.35;6.53;;;21.80;60.70;;;;;;5031684;28;20049;-75
2023/03/08 01:14:09;;;;;;;10.18;6.63;;;21.90;60.70;;;;;;5030875;28;20095;-75
2023/03/08 01:16:35;;;;;;;14.90;6.30;;;21.90;60.80;;;;;;5046959;28;20041;-75
2023/03/08 01:19:04;;;;;;;7.35;5.63;;;21.90;60.50;;;;;;5011917;28;20041;-75
2023/03/08 01:21:31;;;;;;;9.18;5.60;;;22.10;60.40;;;;;;5028535;28;20104;-75
2023/03/08 01:23:57;;;;;;;7.93;5.55;;;22.10;60.20;;;;;;5023008;28;20033;-75
2023/03/08 01:26:25;;;;;;;8.68;5.13;;;22.00;59.90;;;;;;5030618;28;20033;-75
2023/03/08 01:28:56;;;;;;;6.35;4.97;;;22.00;60.00;;;;;;5031695;28;20079;-75
2023/03/08 01:31:25;;;;;;;7.13;5.15;;;21.90;60.10;;;;;;5032753;28;20036;-75
2023/03/08 01:33:53;;;;;;;7.15;5.32;;;22.00;60.00;;;;;;5029865;28;20044;-75
2023/03/08 01:36:21;;;;;;;7.55;4.78;;;22.10;60.20;;;;;;5032552;28;20065;-75
2023/03/08 01:38:48;;;;;;;9.40;5.03;;;22.00;60.00;;;;;;5032431;28;20478;-75
2023/03/08 01:41:26;;;;;;;7.95;5.53;;;22.00;59.90;;;;;;5031342;28;20049;-75
2023/03/08 01:43:53;;;;;;;9.63;5.18;;;22.00;59.80;;;;;;5030202;28;20069;-75
2023/03/08 01:46:27;;;;;;;10.13;5.30;;;22.00;59.60;;;;;;5030790;28;20094;-75
2023/03/08 01:49:19;;;;;;;6.60;4.80;;;22.10;59.60;;;;;;5030988;28;20091;-76
2023/03/08 01:51:52;;;;;;;6.68;4.78;;;22.00;59.60;;;;;;5032198;28;20029;-75
2023/03/08 01:54:38;;;;;;;5.85;4.30;;;22.10;59.80;;;;;;5032502;28;20055;-75
2023/03/08 01:57:27;;;;;;;7.38;5.15;;;22.10;59.50;;;;;;5031112;28;20030;-75
2023/03/08 01:59:57;;;;;;;6.57;4.47;;;22.20;59.20;;;;;;5031169;28;20041;-75
2023/03/08 02:02:29;;;;;;;8.00;4.53;;;22.40;59.00;;;;;;5031416;28;20366;-75
2023/03/08 02:04:56;;;;;;;5.00;3.75;;;22.40;58.90;;;;;;5031202;28;20545;-75
2023/03/08 02:07:22;;;;;;;6.00;3.88;;;22.40;59.00;;;;;;5031196;28;20055;-75
2023/03/08 02:09:49;;;;;;;5.30;3.97;;;22.50;58.90;;;;;;5029631;28;20063;-75
2023/03/08 02:12:16;;;;;;;4.85;3.80;;;22.30;58.90;;;;;;5032108;28;20048;-75
2023/03/08 02:14:43;;;;;;;5.15;4.28;;;22.30;59.00;;;;;;5032138;28;20037;-75
2023/03/08 02:17:10;;;;;;;5.40;3.92;;;22.50;59.10;;;;;;5030822;28;20488;-75
2023/03/08 02:20:11;;;;;;;5.63;4.10;;;22.60;59.20;;;;;;5030805;28;20037;-75
2023/03/08 02:22:39;;;;;;;5.68;3.88;;;22.50;59.10;;;;;;5028408;28;20073;-75
2023/03/08 02:25:25;;;;;;;6.90;4.15;;;22.50;59.10;;;;;;5029606;28;20021;-75
2023/03/08 02:27:53;;;;;;;5.68;4.00;;;22.30;59.20;;;;;;5018877;28;20520;-75
2023/03/08 02:30:33;;;;;;;5.18;4.03;;;22.30;59.10;;;;;;5026345;28;20116;-75
2023/03/08 02:32:59;;;;;;;7.30;4.43;;;22.30;59.20;;;;;;5030437;28;20075;-75
2023/03/08 02:35:28;;;;;;;4.75;4.10;;;22.20;59.10;;;;;;5031985;28;20038;-75
2023/03/08 02:37:54;;;;;;;5.35;4.15;;;22.20;59.20;;;;;;5063453;28;20378;-75
2023/03/08 02:40:20;;;;;;;6.15;4.50;;;22.10;59.50;;;;;;5030575;28;20160;-75
2023/03/08 02:42:46;;;;;;;5.22;3.92;;;22.10;59.70;;;;;;5031517;28;20053;-75
2023/03/08 02:45:12;;;;;;;6.70;4.18;;;22.00;59.70;;;;;;5029796;28;20044;-75
2023/03/08 02:47:38;;;;;;;5.78;3.90;;;22.00;59.80;;;;;;5031535;28;20069;-75
2023/03/08 02:50:05;;;;;;;4.75;3.83;;;22.00;59.80;;;;;;5029963;28;20041;-75
2023/03/08 02:52:31;;;;;;;6.22;4.13;;;21.90;59.80;;;;;;5030030;28;20038;-74
2023/03/08 02:54:57;;;;;;;4.50;3.67;;;22.00;59.80;;;;;;5028716;28;20030;-75
2023/03/08 02:57:24;;;;;;;5.40;3.60;;;22.10;59.80;;;;;;5030510;28;20102;-75
2023/03/08 02:59:51;;;;;;;3.85;3.40;;;22.10;59.60;;;;;;5030039;28;20034;-75
2023/03/08 03:02:17;;;;;;;5.05;3.90;;;22.20;59.30;;;;;;5029936;28;20035;-75
2023/03/08 03:04:43;;;;;;;4.47;3.33;;;22.10;59.40;;;;;;5031029;28;20043;-75
2023/03/08 03:07:10;;;;;;;4.18;3.60;;;22.10;59.30;;;;;;5012384;28;20057;-75
2023/03/08 03:09:37;;;;;;;5.03;3.45;;;22.10;59.50;;;;;;5029526;28;20119;-75
2023/03/08 03:12:03;;;;;;;5.30;3.50;;;22.30;59.40;;;;;;5029009;28;20068;-75
2023/03/08 03:14:32;;;;;;;3.40;3.10;;;22.20;59.10;;;;;;5029781;28;20061;-76
2023/03/08 03:16:59;;;;;;;4.78;3.08;;;22.40;58.90;;;;;;5029870;28;20040;-75
2023/03/08 03:19:25;;;;;;;4.65;3.13;;;22.40;58.80;;;;;;5030895;28;20022;-75
2023/03/08 03:21:51;;;;;;;4.35;3.15;;;22.40;58.70;;;;;;5030836;28;20043;-76
2023/03/08 03:24:16;;;;;;;4.18;3.00;;;22.50;58.60;;;;;;5029657;28;20033;-75
2023/03/08 03:26:52;;;;;;;3.28;2.70;;;22.70;58.70;;;;;;5028200;28;20041;-75
2023/03/08 03:29:19;;;;;;;3.15;2.85;;;22.50;58.50;;;;;;5029460;28;20047;-75
2023/03/08 03:31:49;;;;;;;3.50;2.63;;;22.50;58.50;;;;;;5029469;28;20059;-75
2023/03/08 03:34:16;;;;;;;3.40;2.70;;;22.50;58.40;;;;;;5029683;28;20045;-74
2023/03/08 03:36:44;;;;;;;4.22;3.13;;;22.60;58.40;;;;;;5029684;28;20472;-75
2023/03/08 03:39:10;;;;;;;5.75;3.90;;;22.50;58.50;;;;;;5030738;28;20037;-75
2023/03/08 03:41:38;;;;;;;5.15;3.63;;;22.50;58.40;;;;;;5028454;28;20451;-75
2023/03/08 03:44:09;;;;;;;4.43;3.25;;;22.50;58.50;;;;;;5029635;28;20152;-75
2023/03/08 03:46:35;;;;;;;4.38;3.40;;;22.40;58.40;;;;;;5029381;28;20048;-75
2023/03/08 03:49:03;;;;;;;5.22;3.55;;;22.40;58.60;;;;;;5029362;28;20068;-75
2023/03/08 03:51:34;;;;;;;4.57;3.47;;;22.40;58.80;;;;;;5028424;28;20045;-75
2023/03/08 03:54:23;;;;;;;4.82;3.80;;;22.30;59.10;;;;;;5029108;28;20034;-75
2023/03/08 03:56:50;;;;;;;5.05;3.88;;;22.30;59.40;;;;;;5029182;28;20033;-75
2023/03/08 03:59:19;;;;;;;6.75;3.85;;;22.40;59.30;;;;;;5033110;28;20068;-74
2023/03/08 04:01:46;;;;;;;5.07;3.58;;;22.40;59.40;;;;;;5031739;28;20041;-75
2023/03/08 04:04:19;;;;;;;5.78;3.90;;;22.30;59.40;;;;;;5015432;28;20532;-75
2023/03/08 04:06:46;;;;;;;8.25;4.18;;;22.20;59.50;;;;;;5013887;28;20046;-75
2023/03/08 04:09:17;;;;;;;7.72;4.20;;;22.20;59.50;;;;;;5015108;28;20132;-75
2023/03/08 04:11:49;;;;;;;4.60;4.00;;;22.20;59.50;;;;;;5015072;28;20078;-74
2023/03/08 04:14:18;;;;;;;7.03;3.88;;;22.20;59.50;;;;;;5015150;28;20057;-75
2023/03/08 04:16:45;;;;;;;5.15;3.67;;;22.20;59.20;;;;;;5015217;28;20052;-74
2023/03/08 04:19:19;;;;;;;4.30;3.63;;;22.10;59.50;;;;;;5014935;28;20060;-74
2023/03/08 04:21:50;;;;;;;5.28;4.40;;;22.00;59.30;;;;;;5031181;28;20197;-75
2023/03/08 04:24:18;;;;;;;7.90;4.15;;;22.00;59.40;;;;;;5048212;28;20045;-75
2023/03/08 04:26:48;;;;;;;8.02;4.20;;;22.00;59.40;;;;;;5048028;28;20037;-75
2023/03/08 04:29:17;;;;;;;5.75;4.43;;;22.00;59.60;;;;;;5054114;28;20489;-75
2023/03/08 04:31:43;;;;;;;5.00;3.90;;;22.00;59.60;;;;;;5034731;28;20046;-74
2023/03/08 04:34:12;;;;;;;5.25;3.50;;;21.90;59.70;;;;;;5033525;28;20404;-75
2023/03/08 04:36:40;;;;;;;5.25;3.25;;;21.90;59.50;;;;;;5040122;28;20037;-72
2023/03/08 04:39:07;;;;;;;4.57;3.38;;;22.00;59.50;;;;;;5071658;28;20127;-72
2023/03/08 04:41:33;;;;;;;8.05;4.05;;;22.10;59.40;;;;;;5045733;28;20032;-72
2023/03/08 04:44:08;;;;;;;4.68;3.40;;;22.00;58.90;;;;;;5072089;28;20036;-72
2023/03/08 04:46:40;;;;;;;5.43;3.20;;;22.00;58.90;;;;;;5065027;28;20059;-72
2023/03/08 04:49:07;;;;;;;6.22;3.90;;;22.10;58.80;;;;;;5074095;28;20040;-72
2023/03/08 04:51:39;;;;;;;4.60;3.43;;;22.10;58.50;;;;;;5075760;28;20040;-72
2023/03/08 04:54:07;;;;;;;4.15;3.17;;;22.20;58.60;;;;;;5038589;28;20369;-73
2023/03/08 04:56:37;;;;;;;7.30;4.10;;;22.30;58.70;;;;;;5050335;28;20086;-73
2023/03/08 04:59:03;;;;;;;6.05;4.18;;;22.40;58.70;;;;;;5069496;28;20457;-73
2023/03/08 05:01:30;;;;;;;3.30;3.00;;;22.40;55.20;;;;;;5061529;28;20044;-74
2023/03/08 05:03:56;;;;;;;5.78;4.10;;;22.30;59.80;;;;;;5056541;28;20046;-74
2023/03/08 05:06:30;;;;;;;7.10;3.40;;;22.10;58.70;;;;;;5055450;28;20048;-73
2023/03/08 05:08:57;;;;;;;7.43;4.10;;;22.30;59.30;;;;;;5050289;28;20524;-74
2023/03/08 05:11:26;;;;;;;6.93;3.80;;;22.20;59.60;;;;;;5045111;28;20087;-75
2023/03/08 05:13:54;;;;;;;7.25;4.30;;;22.20;60.00;;;;;;5053425;28;20728;-74
2023/03/08 05:16:21;;;;;;;6.05;4.25;;;22.30;59.60;;;;;;5053135;28;20066;-74
2023/03/08 05:18:47;;;;;;;8.82;3.75;;;22.20;59.20;;;;;;5070385;28;20028;-74
2023/03/08 05:21:18;;;;;;;4.97;3.22;;;22.20;59.60;;;;;;5027477;28;20049;-75
2023/03/08 05:23:47;;;;;;;6.55;3.65;;;22.00;59.80;;;;;;5015737;28;20503;-74
2023/03/08 05:26:16;;;;;;;4.70;3.40;;;22.00;59.80;;;;;;5023599;28;20050;-75
2023/03/08 05:28:43;;;;;;;6.68;4.72;;;22.10;59.60;;;;;;5045048;28;20056;-75
2023/03/08 05:31:15;;;;;;;6.53;3.85;;;22.10;59.40;;;;;;5011300;28;20034;-75
2023/03/08 05:33:45;;;;;;;8.07;4.05;;;22.10;59.80;;;;;;5011498;28;20081;-75
2023/03/08 05:36:13;;;;;;;7.50;3.88;;;22.00;59.90;;;;;;5011712;28;20421;-75
2023/03/08 05:38:40;;;;;;;6.88;4.03;;;21.90;60.00;;;;;;5030869;28;20064;-76
2023/03/08 05:41:13;;;;;;;7.82;4.45;;;22.00;60.10;;;;;;5031368;28;20061;-75
2023/03/08 05:43:41;;;;;;;7.30;4.28;;;22.00;60.20;;;;;;5031746;28;20045;-75
2023/03/08 05:46:17;;;;;;;8.55;4.40;;;21.90;60.20;;;;;;5031265;28;20055;-74
2023/03/08 05:48:43;;;;;;;8.30;4.20;;;22.00;60.20;;;;;;5031560;28;20485;-75
2023/03/08 05:51:13;;;;;;;10.48;5.28;;;22.00;60.30;;;;;;5030991;28;20071;-74
2023/03/08 05:53:41;;;;;;;6.97;4.13;;;21.90;60.10;;;;;;5068345;28;20551;-75
2023/03/08 05:56:15;;;;;;;6.97;4.68;;;22.10;60.20;;;;;;5069289;28;20044;-75
2023/03/08 05:58:48;;;;;;;5.68;3.85;;;22.20;60.00;;;;;;5069553;28;20036;-75
2023/03/08 06:01:20;;;;;;;6.78;4.18;;;22.20;59.60;;;;;;5052957;28;20055;-75
2023/03/08 06:03:48;;;;;;;5.80;4.07;;;22.30;59.50;;;;;;5069654;28;20084;-75
2023/03/08 06:06:17;;;;;;;9.15;5.28;;;22.20;59.20;;;;;;5049577;28;20049;-75
2023/03/08 06:08:45;;;;;;;6.93;5.00;;;22.20;59.30;;;;;;5065154;28;20092;-74
2023/03/08 06:11:12;;;;;;;6.68;4.53;;;22.10;59.50;;;;;;5049001;28;20060;-75
2023/03/08 06:13:40;;;;;;;10.38;4.63;;;22.20;59.50;;;;;;5049326;28;20086;-75
2023/03/08 06:16:07;;;;;;;9.30;4.53;;;22.10;59.50;;;;;;5032762;28;20054;-74
2023/03/08 06:18:37;;;;;;;9.13;4.57;;;22.30;59.50;;;;;;5048636;28;20080;-75
2023/03/08 06:21:16;;;;;;;8.13;5.55;;;22.10;59.50;;;;;;5032507;28;20044;-74
2023/03/08 06:23:44;;;;;;;11.98;6.35;;;22.00;59.40;;;;;;5043977;28;20028;-74
2023/03/08 06:26:11;;;;;;;6.00;4.50;;;22.00;59.60;;;;;;5009732;28;20042;-74
2023/03/08 06:28:39;;;;;;;9.45;5.47;;;22.20;59.50;;;;;;4992932;28;20080;-75
2023/03/08 06:31:10;;;;;;;12.15;6.00;;;22.20;59.40;;;;;;5009170;28;20046;-75
2023/03/08 06:33:36;;;;;;;13.88;5.30;;;22.00;59.30;;;;;;5009563;28;20044;-74
2023/03/08 06:36:04;;;;;;;8.90;5.78;;;21.90;59.40;;;;;;5009511;28;20030;-74
2023/03/08 06:38:33;;;;;;;11.95;5.22;;;22.10;59.70;;;;;;5029596;28;20034;-75
2023/03/08 06:40:59;;;;;;;14.15;5.40;;;22.10;59.70;;;;;;5031646;28;20034;-75
2023/03/08 06:43:26;;;;;;;6.97;4.95;;;22.00;59.60;;;;;;5031483;28;20396;-73
2023/03/08 06:45:52;;;;;;;9.48;6.03;;;22.00;59.70;;;;;;5030294;28;20393;-75
2023/03/08 06:48:18;;;;;;;9.70;5.30;;;22.00;59.80;;;;;;5030266;28;20553;-74
2023/03/08 06:50:45;;;;;;;16.00;6.60;;;22.10;59.70;;;;;;5031385;28;20060;-75
2023/03/08 06:53:13;;;;;;;16.58;7.75;;;22.00;59.50;;;;;;5067217;28;20053;-75
2023/03/08 06:55:53;;;;;;;13.88;6.88;;;22.10;59.50;;;;;;5068754;28;20091;-74
2023/03/08 06:58:19;;;;;;;13.15;7.00;;;22.10;59.60;;;;;;5051926;28;20052;-75
2023/03/08 07:00:45;;;;;;;11.05;6.07;;;22.10;59.50;;;;;;5068324;28;20548;-75
2023/03/08 07:03:12;;;;;;;8.93;5.75;;;22.20;59.40;;;;;;5067761;28;20128;-74
2023/03/08 07:05:38;;;;;;;7.38;4.97;;;22.00;59.30;;;;;;5064953;28;20082;-75
2023/03/08 07:08:04;;;;;;;8.57;5.28;;;22.10;59.60;;;;;;5058675;28;20064;-75
2023/03/08 07:10:30;;;;;;;9.48;4.47;;;22.10;59.50;;;;;;5068100;28;20060;-75
2023/03/08 07:12:56;;;;;;;9.52;5.53;;;22.00;59.40;;;;;;5068592;28;20060;-75
2023/03/08 07:15:23;;;;;;;9.60;4.72;;;22.10;59.50;;;;;;5068541;28;20036;-75
2023/03/08 07:17:54;;;;;;;7.82;4.13;;;22.00;59.50;;;;;;5054106;28;20110;-75
2023/03/08 07:20:21;;;;;;;8.10;3.95;;;22.10;59.20;;;;;;5052011;28;20079;-74
2023/03/08 07:22:47;;;;;;;8.40;5.22;;;22.10;58.90;;;;;;5066214;28;20115;-76
2023/03/08 07:25:16;;;;;;;9.60;5.43;;;22.10;58.70;;;;;;5031877;28;20555;-75
2023/03/08 07:27:42;;;;;;;8.55;4.75;;;22.10;58.60;;;;;;5030775;28;20648;-75
2023/03/08 07:30:10;;;;;;;7.43;4.45;;;22.10;58.60;;;;;;5032059;28;20060;-74
2023/03/08 07:32:38;;;;;;;7.60;4.97;;;22.10;59.00;;;;;;5034943;28;20080;-75
2023/03/08 07:35:06;;;;;;;7.18;4.53;;;22.10;58.90;;;;;;5035069;28;20140;-75
2023/03/08 07:37:32;;;;;;;6.72;4.20;;;22.10;58.90;;;;;;5034654;28;20029;-75
2023/03/08 07:39:58;;;;;;;8.35;4.07;;;22.00;58.90;;;;;;5022209;28;20037;-75
2023/03/08 07:42:26;;;;;;;12.75;4.75;;;22.10;59.10;;;;;;5031040;28;20037;-74
2023/03/08 07:44:56;;;;;;;11.18;4.90;;;22.10;58.90;;;;;;5032301;28;20041;-75
2023/03/08 07:47:22;;;;;;;10.25;4.47;;;22.10;58.80;;;;;;5034721;28;20381;-75
2023/03/08 07:49:48;;;;;;;8.02;4.38;;;22.20;58.90;;;;;;5034634;28;20033;-74
2023/03/08 07:52:14;;;;;;;14.07;4.45;;;22.20;58.90;;;;;;5034441;28;20033;-74
2023/03/08 07:54:40;;;;;;;7.80;4.15;;;22.20;58.90;;;;;;5034594;28;20053;-75
2023/03/08 07:57:06;;;;;;;7.75;4.07;;;22.10;58.90;;;;;;5033826;28;20088;-74
2023/03/08 07:59:32;;;;;;;7.70;4.45;;;22.20;58.90;;;;;;5032120;28;20418;-75
2023/03/08 08:01:58;;;;;;;11.25;4.85;;;22.10;58.70;;;;;;5030835;28;20033;-75
2023/03/08 08:04:24;;;;;;;17.85;4.55;;;22.20;58.70;;;;;;5031637;28;20029;-75
2023/03/08 08:06:50;;;;;;;16.83;5.57;;;22.30;59.00;;;;;;5033829;28;20144;-75
2023/03/08 08:09:17;;;;;;;11.63;6.50;;;22.10;58.80;;;;;;5030265;28;20060;-75
2023/03/08 08:11:43;;;;;;;13.52;6.35;;;22.10;58.90;;;;;;5034417;28;20119;-75
2023/03/08 08:14:09;;;;;;;9.35;6.07;;;22.10;59.00;;;;;;5034315;28;20730;-75
2023/03/08 08:16:35;;;;;;;16.33;5.95;;;22.00;58.90;;;;;;5034311;28;20497;-75
2023/03/08 08:19:01;;;;;;;12.00;5.82;;;22.10;59.10;;;;;;5034343;28;20052;-75
2023/03/08 08:21:27;;;;;;;9.75;6.22;;;22.00;58.90;;;;;;5031622;28;20037;-75
2023/03/08 08:23:56;;;;;;;9.77;6.00;;;22.00;59.00;;;;;;5044442;28;20069;-75
2023/03/08 08:26:22;;;;;;;11.93;6.13;;;21.90;59.00;;;;;;5014353;28;20044;-74
2023/03/08 08:28:51;;;;;;;12.57;6.18;;;22.00;59.10;;;;;;5014301;28;20029;-75
2023/03/08 08:31:20;;;;;;;14.43;5.47;;;22.00;59.20;;;;;;5028055;28;20550;-74
2023/03/08 08:33:46;;;;;;;2.45;1.95;;;22.00;59.40;;;;;;5030089;28;20489;-74
2023/03/08 08:36:16;;;;;;;0.20;0.20;;;22.20;59.90;;;;;;5051060;28;20033;-75
2023/03/08 08:38:47;;;;;;;1.23;1.23;;;22.20;59.40;;;;;;5045881;28;20037;-71
2023/03/08 08:41:16;;;;;;;0.70;0.70;;;22.30;58.60;;;;;;5031918;28;20037;-73
2023/03/08 08:43:43;;;;;;;3.88;1.45;;;22.60;58.50;;;;;;5032548;28;20049;-73
2023/03/08 08:46:09;;;;;;;4.28;2.63;;;22.70;58.00;;;;;;5047487;28;20033;-71
2023/03/08 08:48:37;;;;;;;1.85;0.77;;;22.80;58.70;;;;;;5041947;28;20049;-77
2023/03/08 08:51:05;;;;;;;2.05;1.85;;;22.80;58.20;;;;;;5027492;28;20041;-71
2023/03/08 08:53:31;;;;;;;0.52;0.52;;;22.80;58.80;;;;;;5037557;28;20033;-77
2023/03/08 08:55:57;;;;;;;1.13;1.13;;;23.00;59.00;;;;;;5033722;28;20044;-75
2023/03/08 08:58:24;;;;;;;11.40;6.63;;;23.00;58.50;;;;;;5040295;28;20082;-73
2023/03/08 09:00:50;;;;;;;11.93;5.55;;;22.90;57.30;;;;;;5034390;28;20029;-75
2023/03/08 09:03:16;;;;;;;11.27;5.95;;;22.90;55.60;;;;;;5029091;28;20584;-73
2023/03/08 09:05:43;;;;;;;11.50;5.70;;;22.90;55.40;;;;;;5032452;28;20088;-76
2023/03/08 09:08:10;;;;;;;10.95;6.28;;;22.90;55.20;;;;;;5032542;28;20017;-75
2023/03/08 09:10:39;;;;;;;13.30;6.28;;;23.00;54.80;;;;;;5034371;28;20183;-76
2023/03/08 09:13:05;;;;;;;14.98;6.32;;;22.90;55.00;;;;;;5032336;28;20543;-74
2023/03/08 09:15:33;;;;;;;10.63;6.43;;;22.90;55.00;;;;;;5032132;28;20025;-76
2023/03/08 09:18:00;;;;;;;13.82;6.95;;;22.90;54.80;;;;;;5040224;28;20427;-74
2023/03/08 09:20:26;;;;;;;18.38;6.60;;;23.00;54.40;;;;;;5033516;28;20042;-76
2023/03/08 09:22:52;;;;;;;13.05;6.97;;;22.90;53.80;;;;;;5028542;28;20027;-74
2023/03/08 09:25:19;;;;;;;19.23;7.07;;;22.90;53.60;;;;;;5034791;28;20033;-71
2023/03/08 09:27:47;;;;;;;14.25;6.70;;;22.90;55.00;;;;;;5035806;28;20473;-73
2023/03/08 09:30:14;;;;;;;13.80;6.05;;;22.90;55.80;;;;;;5041736;28;20025;-75
2023/03/08 09:32:40;;;;;;;10.32;6.00;;;22.90;56.20;;;;;;5050761;28;20040;-73
2023/03/08 09:35:07;;;;;;;11.07;4.47;;;22.90;56.20;;;;;;5042756;28;20336;-73
2023/03/08 09:37:33;;;;;;;7.15;4.30;;;22.90;56.60;;;;;;5049121;28;20037;-74
2023/03/08 09:39:59;;;;;;;5.43;3.47;;;22.90;56.70;;;;;;5029871;28;20091;-74
2023/03/08 09:42:31;;;;;;;6.40;3.10;;;22.80;57.40;;;;;;5039391;28;20029;-74
2023/03/08 09:45:12;;;;;;;9.13;3.35;;;22.90;57.60;;;;;;5048227;28;20027;-76
2023/03/08 09:47:59;;;;;;;5.45;3.17;;;22.90;57.90;;;;;;5036178;28;20060;-74
2023/03/08 09:50:51;;;;;;;6.20;3.55;;;23.00;58.10;;;;;;5041182;28;20113;-73
2023/03/08 09:53:42;;;;;;;5.75;3.00;;;23.00;59.40;;;;;;5048703;28;20090;-72
2023/03/08 09:56:30;;;;;;;7.22;3.42;;;23.00;60.00;;;;;;5021681;28;20025;-72
2023/03/08 09:59:18;;;;;;;5.15;2.90;;;23.00;59.00;;;;;;5029473;28;20033;-71
2023/03/08 10:01:51;;;;;;;6.18;3.90;;;23.00;59.00;;;;;;5030417;28;20037;-75
2023/03/08 10:04:35;;;;;;;12.43;4.75;;;22.90;58.80;;;;;;5015763;28;20099;-73
2023/03/08 10:07:20;;;;;;;8.63;4.85;;;23.00;58.40;;;;;;5033060;28;20116;-75
2023/03/08 10:10:01;;;;;;;8.00;3.63;;;23.00;58.60;;;;;;5046330;28;20076;-72
2023/03/08 10:12:54;;;;;;;7.60;3.47;;;22.90;58.70;;;;;;5028914;28;20037;-73
2023/03/08 10:15:23;;;;;;;6.63;3.45;;;23.00;59.40;;;;;;5029828;28;20108;-73
2023/03/08 10:17:57;;;;;;;5.30;3.83;;;23.00;59.60;;;;;;5027422;28;20037;-71
2023/03/08 10:20:27;;;;;;;4.70;3.17;;;22.90;59.60;;;;;;5035140;28;20033;-71
2023/03/08 10:23:14;;;;;;;4.28;2.67;;;23.00;59.60;;;;;;5028412;28;20042;-72
2023/03/08 10:25:42;;;;;;;7.10;3.53;;;23.10;59.50;;;;;;5040468;28;20033;-73
2023/03/08 10:28:17;;;;;;;4.35;2.75;;;23.10;59.30;;;;;;5042568;28;20029;-71
2023/03/08 10:30:48;;;;;;;3.30;2.70;;;23.00;59.00;;;;;;5029966;28;20485;-73
2023/03/08 10:33:16;;;;;;;6.63;3.00;;;23.00;58.90;;;;;;5033838;28;20102;-73
2023/03/08 10:36:01;;;;;;;5.05;1.42;;;23.10;58.80;;;;;;5051446;28;20040;-72
2023/03/08 10:38:30;;;;;;;2.53;1.90;;;23.10;58.50;;;;;;5051502;28;20037;-71
2023/03/08 10:41:13;;;;;;;1.83;1.70;;;23.30;58.60;;;;;;5045024;28;20401;-71
2023/03/08 10:43:43;;;;;;;;;;;23.30;58.60;;;;;;5026364;28;20432;-71
2023/03/08 10:46:17;;;;;;;2.10;1.73;;;23.20;58.10;;;;;;5030672;28;19913;-71
2023/03/08 10:48:44;;;;;;;3.42;2.25;;;23.20;57.90;;;;;;5038624;28;20135;-70
2023/03/08 10:51:16;;;;;;;5.78;3.17;;;23.20;57.50;;;;;;5050765;28;20488;-71
2023/03/08 10:53:53;;;;;;;1.35;0.68;;;23.20;57.40;;;;;;5062417;28;20053;-71
2023/03/08 10:56:53;;;;;;;0.60;0.60;;;23.30;57.40;;;;;;5017152;28;20042;-70
2023/03/08 10:59:31;;;;;;;0.88;0.77;;;23.30;57.40;;;;;;5028198;28;20038;-70
2023/03/08 11:02:12;;;;;;;0.65;0.65;;;23.40;56.70;;;;;;5011686;28;20034;-70
2023/03/08 11:04:48;;;;;;;4.57;1.80;;;23.30;55.10;;;;;;5011686;28;20053;-70
2023/03/08 11:07:23;;;;;;;5.32;2.45;;;23.40;56.10;;;;;;5024295;28;20109;-70
2023/03/08 11:09:49;;;;;;;2.88;1.95;;;23.30;56.00;;;;;;5024428;28;20061;-71
2023/03/08 11:12:23;;;;;;;3.47;1.80;;;23.30;55.70;;;;;;5011028;28;20038;-70
2023/03/08 11:14:50;;;;;;;3.17;1.23;;;23.30;55.80;;;;;;5007930;28;20045;-70
2023/03/08 11:17:38;;;;;;;5.32;2.42;;;23.40;56.10;;;;;;5009433;28;20461;-70
2023/03/08 11:20:17;;;;;;;5.28;2.45;;;23.30;56.30;;;;;;5028461;28;20571;-70
2023/03/08 11:22:45;;;;;;;3.92;2.45;;;23.40;56.70;;;;;;5023601;28;20123;-71
2023/03/08 11:25:20;;;;;;;8.48;2.05;;;23.30;56.90;;;;;;5026978;28;20068;-70
2023/03/08 11:28:27;;;;;;;3.97;2.30;;;23.40;57.00;;;;;;5017455;28;20485;-68
2023/03/08 11:31:26;;;;;;;1.58;1.45;;;23.40;56.90;;;;;;4929731;29;20135;-69
2023/03/08 11:34:13;;;;;;;3.35;2.10;;;23.50;62.60;;;;;;4945836;29;20077;-70
2023/03/08 11:36:44;;;;;;;6.35;2.75;;;23.60;54.80;;;;;;4962877;28;20050;-70
2023/03/08 11:39:33;;;;;;;4.18;2.72;;;23.80;51.20;;;;;;4953546;28;20027;-71
2023/03/08 11:42:07;;;;;;;3.00;2.10;;;23.80;47.70;;;;;;4969269;28;20051;-69
2023/03/08 11:45:03;;;;;;;2.15;1.83;;;24.10;56.40;;;;;;4965777;28;20034;-69
2023/03/08 11:47:38;;;;;;;5.03;2.97;;;24.10;58.50;;;;;;4919452;29;20392;-69
2023/03/08 11:50:18;;;;;;;2.90;2.50;;;24.20;59.30;;;;;;4892919;29;20171;-70
2023/03/08 11:52:51;;;;;;;2.90;2.20;;;24.20;58.80;;;;;;4922852;29;20502;-69
2023/03/08 11:55:19;;;;;;;6.15;2.20;;;24.10;57.20;;;;;;4911849;29;20051;-70
2023/03/08 11:57:58;;;;;;;2.75;2.35;;;24.10;56.50;;;;;;4911848;29;20060;-70
2023/03/08 12:00:36;;;;;;;3.80;2.35;;;24.10;56.50;;;;;;4911671;29;20052;-70
2023/03/08 12:03:15;;;;;;;5.07;2.47;;;24.10;48.50;;;;;;4917595;29;20451;-70
2023/03/08 12:05:49;;;;;;;6.05;2.08;;;23.90;44.70;;;;;;4922549;29;20155;-69
2023/03/08 12:08:20;;;;;;;2.92;1.95;;;23.90;42.80;;;;;;4954274;28;20760;-68
2023/03/08 12:11:14;;;;;;;10.18;2.80;;;24.10;51.80;;;;;;4973529;28;20055;-69
2023/03/08 12:13:46;;;;;;;9.80;2.65;;;24.40;50.90;;;;;;4957939;28;20043;-69
2023/03/08 12:16:41;;;;;;;3.92;2.00;;;24.50;46.60;;;;;;4967925;28;20031;-68
2023/03/08 12:19:33;;;;;;;4.28;2.17;;;24.30;44.90;;;;;;4989644;28;20038;-69
2023/03/08 12:22:04;;;;;;;2.38;1.90;;;24.30;44.80;;;;;;4974658;28;20039;-70
2023/03/08 12:24:47;;;;;;;9.15;2.35;;;24.30;44.10;;;;;;5004120;28;20042;-69
2023/03/08 12:27:31;;;;;;;;;;;24.30;49.20;;;;;;5045325;28;20044;-69
2023/03/08 12:30:06;;;;;;;2.92;1.80;;;24.40;51.20;;;;;;5028311;28;19917;-69
2023/03/08 12:32:36;;;;;;;4.22;2.05;;;24.50;49.60;;;;;;5053323;28;20052;-69
2023/03/08 12:35:22;;;;;;;4.38;1.88;;;24.50;46.30;;;;;;5044941;28;20033;-70
2023/03/08 12:38:18;;;;;;;2.72;1.60;;;24.60;42.40;;;;;;5033761;28;20041;-69
2023/03/08 12:40:46;;;;;;;1.70;1.27;;;24.30;41.30;;;;;;4991876;28;20065;-69
2023/03/08 12:43:19;;;;;;;3.45;2.25;;;24.30;41.60;;;;;;4991724;28;20057;-69
2023/03/08 12:45:55;;;;;;;3.10;2.30;;;24.40;56.70;;;;;;4991506;28;20062;-70
2023/03/08 12:48:34;;;;;;;1.52;1.42;;;24.40;54.10;;;;;;4991734;28;20459;-70
2023/03/08 12:51:06;;;;;;;3.58;1.50;;;24.40;54.20;;;;;;4991213;28;20101;-70
2023/03/08 12:53:34;;;;;;;3.58;1.60;;;24.30;54.80;;;;;;4991765;28;20125;-70
2023/03/08 12:56:02;;;;;;;1.38;1.27;;;24.40;54.80;;;;;;4991749;28;20481;-71
2023/03/08 12:58:30;;;;;;;11.40;1.27;;;24.40;54.80;;;;;;4991555;28;20085;-71
2023/03/08 13:01:02;;;;;;;2.75;1.80;;;24.50;55.20;;;;;;4974924;28;20452;-71
2023/03/08 13:03:53;;;;;;;1.42;1.33;;;24.50;55.30;;;;;;5011076;28;20113;-70